createdAt,value
2023-05-09T00:01:31.725Z,12.22
2023-05-09T00:04:00.382Z,12.17
2023-05-09T00:06:27.889Z,12.18
2023-05-09T00:08:55.920Z,12.17
2023-05-09T00:11:22.684Z,12.14
2023-05-09T00:13:50.759Z,12.16
2023-05-09T00:16:18.717Z,12.16
2023-05-09T00:18:46.311Z,12.18
2023-05-09T00:21:13.762Z,12.20
2023-05-09T00:23:41.221Z,12.30
2023-05-09T00:26:08.457Z,12.28
2023-05-09T00:28:35.676Z,12.28
2023-05-09T00:31:03.986Z,12.33
2023-05-09T00:33:31.383Z,12.33
2023-05-09T00:35:58.621Z,12.27
2023-05-09T00:38:25.968Z,12.25
2023-05-09T00:40:53.197Z,12.21
2023-05-09T00:43:21.316Z,12.19
2023-05-09T00:45:52.195Z,12.22
2023-05-09T00:48:19.358Z,12.28
2023-05-09T00:50:49.646Z,12.25
2023-05-09T00:53:17.155Z,12.26
2023-05-09T00:55:45.346Z,12.27
2023-05-09T00:58:13.754Z,12.27
2023-05-09T01:00:41.447Z,12.27
2023-05-09T01:03:09.501Z,12.30
2023-05-09T01:06:11.712Z,12.39
2023-05-09T01:08:54.867Z,12.31
2023-05-09T01:11:49.721Z,12.36
2023-05-09T01:14:34.393Z,12.29
2023-05-09T01:17:11.353Z,12.20
2023-05-09T01:20:07.287Z,12.12
2023-05-09T01:22:38.398Z,12.04
2023-05-09T01:25:33.295Z,11.92
2023-05-09T01:28:13.025Z,11.90
2023-05-09T01:30:45.220Z,11.86
2023-05-09T01:33:18.934Z,11.86
2023-05-09T01:35:53.126Z,11.78
2023-05-09T01:38:24.434Z,11.74
2023-05-09T01:40:54.477Z,11.68
2023-05-09T01:43:26.173Z,11.63
2023-05-09T01:45:54.524Z,11.61
2023-05-09T01:48:26.663Z,11.55
2023-05-09T01:50:57.931Z,11.54
2023-05-09T01:53:28.128Z,11.57
2023-05-09T01:55:57.226Z,11.56
2023-05-09T01:58:27.538Z,11.53
2023-05-09T02:00:55.001Z,11.50
2023-05-09T02:03:23.421Z,11.56
2023-05-09T02:05:51.263Z,11.62
2023-05-09T02:08:21.593Z,11.60
2023-05-09T02:10:51.871Z,11.59
2023-05-09T02:13:19.539Z,11.66
2023-05-09T02:15:48.090Z,11.70
2023-05-09T02:18:15.658Z,11.71
2023-05-09T02:20:43.043Z,11.72
2023-05-09T02:23:10.406Z,11.72
2023-05-09T02:25:39.863Z,11.72
2023-05-09T02:28:11.093Z,11.77
2023-05-09T02:30:43.597Z,11.89
2023-05-09T02:33:13.150Z,11.91
2023-05-09T02:35:42.553Z,11.87
2023-05-09T02:38:10.518Z,11.79
2023-05-09T02:40:38.072Z,11.78
2023-05-09T02:43:05.402Z,11.74
2023-05-09T02:45:32.840Z,11.70
2023-05-09T02:48:00.443Z,11.72
2023-05-09T02:50:27.841Z,11.73
2023-05-09T02:52:54.840Z,11.70
2023-05-09T02:55:21.837Z,11.65
2023-05-09T02:57:51.952Z,11.62
2023-05-09T03:00:25.907Z,11.63
2023-05-09T03:02:52.582Z,11.60
2023-05-09T03:05:19.402Z,11.62
2023-05-09T03:07:46.380Z,11.63
2023-05-09T03:10:13.434Z,11.59
2023-05-09T03:12:40.319Z,11.55
2023-05-09T03:15:07.923Z,11.60
2023-05-09T03:17:35.598Z,11.56
2023-05-09T03:20:05.810Z,11.59
2023-05-09T03:22:32.613Z,11.58
2023-05-09T03:24:59.931Z,11.50
2023-05-09T03:27:26.880Z,11.58
2023-05-09T03:29:53.579Z,11.54
2023-05-09T03:32:33.296Z,11.48
2023-05-09T03:34:59.988Z,11.45
2023-05-09T03:37:27.297Z,11.46
2023-05-09T03:39:54.180Z,11.46
2023-05-09T03:42:21.831Z,11.45
2023-05-09T03:44:49.249Z,11.48
2023-05-09T03:47:16.360Z,11.43
2023-05-09T03:49:42.997Z,11.44
2023-05-09T03:52:10.506Z,11.31
2023-05-09T03:54:37.161Z,11.28
2023-05-09T03:57:03.905Z,11.28
2023-05-09T03:59:30.877Z,11.33
2023-05-09T04:01:57.803Z,11.33
2023-05-09T04:04:24.578Z,11.32
2023-05-09T04:06:51.816Z,11.30
2023-05-09T04:09:19.232Z,11.26
2023-05-09T04:11:46.755Z,11.19
2023-05-09T04:14:13.556Z,11.15
2023-05-09T04:16:40.268Z,11.10
2023-05-09T04:19:07.742Z,11.09
2023-05-09T04:21:34.499Z,11.14
2023-05-09T04:24:01.857Z,11.12
2023-05-09T04:26:28.792Z,11.06
2023-05-09T04:28:56.640Z,11.09
2023-05-09T04:31:24.250Z,11.10
2023-05-09T04:33:51.554Z,11.14
2023-05-09T04:36:18.979Z,11.14
2023-05-09T04:38:47.072Z,11.12
2023-05-09T04:41:13.936Z,11.10
2023-05-09T04:43:40.802Z,11.06
2023-05-09T04:46:08.033Z,11.03
2023-05-09T04:48:35.644Z,11.03
2023-05-09T04:51:02.914Z,10.97
2023-05-09T04:53:29.781Z,10.93
2023-05-09T04:55:56.916Z,10.85
2023-05-09T04:58:25.583Z,10.77
2023-05-09T05:00:53.184Z,10.75
2023-05-09T05:03:20.034Z,10.62
2023-05-09T05:05:47.141Z,10.49
2023-05-09T05:08:13.976Z,10.41
2023-05-09T05:10:41.237Z,10.36
2023-05-09T05:13:07.978Z,10.39
2023-05-09T05:15:34.738Z,10.39
2023-05-09T05:18:01.663Z,10.40
2023-05-09T05:20:28.390Z,10.35
2023-05-09T05:22:57.273Z,10.38
2023-05-09T05:25:25.017Z,10.35
2023-05-09T05:27:51.996Z,10.49
2023-05-09T05:30:25.285Z,10.47
2023-05-09T05:32:56.987Z,10.53
2023-05-09T05:35:25.098Z,10.55
2023-05-09T05:37:52.518Z,10.61
2023-05-09T05:40:19.365Z,10.63
2023-05-09T05:42:46.857Z,10.58
2023-05-09T05:45:14.403Z,10.55
2023-05-09T05:47:41.533Z,10.50
2023-05-09T05:50:11.929Z,10.46
2023-05-09T05:52:39.754Z,10.46
2023-05-09T05:55:07.022Z,10.35
2023-05-09T05:57:35.313Z,10.27
2023-05-09T06:00:03.399Z,10.27
2023-05-09T06:02:30.547Z,10.30
2023-05-09T06:04:57.424Z,10.23
2023-05-09T06:07:24.355Z,10.22
2023-05-09T06:09:51.123Z,10.21
2023-05-09T06:12:17.918Z,10.24
2023-05-09T06:14:45.535Z,10.20
2023-05-09T06:17:12.420Z,10.19
2023-05-09T06:19:39.235Z,10.19
2023-05-09T06:22:09.149Z,10.27
2023-05-09T06:24:36.692Z,10.29
2023-05-09T06:27:04.405Z,10.18
2023-05-09T06:29:31.541Z,10.23
2023-05-09T06:31:58.404Z,10.20
2023-05-09T06:34:25.192Z,10.21
2023-05-09T06:36:52.576Z,10.15
2023-05-09T06:39:19.568Z,10.09
2023-05-09T06:41:46.330Z,10.08
2023-05-09T06:44:13.019Z,10.04
2023-05-09T06:46:40.259Z,10.06
2023-05-09T06:49:07.418Z,10.04
2023-05-09T06:51:34.288Z,10.11
2023-05-09T06:54:01.318Z,10.08
2023-05-09T06:56:30.330Z,10.09
2023-05-09T06:58:57.299Z,10.06
2023-05-09T07:01:26.725Z,10.00
2023-05-09T07:03:53.455Z,9.90
2023-05-09T07:06:20.270Z,9.82
2023-05-09T07:08:47.225Z,9.80
2023-05-09T07:11:14.070Z,9.75
2023-05-09T07:13:40.826Z,9.82
2023-05-09T07:16:07.753Z,9.80
2023-05-09T07:18:34.603Z,9.87
2023-05-09T07:21:01.310Z,9.82
2023-05-09T07:23:28.277Z,9.90
2023-05-09T07:25:59.195Z,9.95
2023-05-09T07:28:28.817Z,9.84
2023-05-09T07:30:56.786Z,9.80
2023-05-09T07:33:26.912Z,9.79
2023-05-09T07:35:54.455Z,9.79
2023-05-09T07:38:21.226Z,9.77
2023-05-09T07:40:47.964Z,9.63
2023-05-09T07:43:14.837Z,9.60
2023-05-09T07:45:41.838Z,9.54
2023-05-09T07:48:09.729Z,9.58
2023-05-09T07:50:36.566Z,9.64
2023-05-09T07:53:03.773Z,9.61
2023-05-09T07:55:30.549Z,9.58
2023-05-09T07:57:57.367Z,9.47
2023-05-09T08:00:25.076Z,9.49
2023-05-09T08:02:52.245Z,9.47
2023-05-09T08:05:19.432Z,9.56
2023-05-09T08:07:47.023Z,9.57
2023-05-09T08:10:13.978Z,9.54
2023-05-09T08:12:40.906Z,9.58
2023-05-09T08:15:08.081Z,9.58
2023-05-09T08:17:34.933Z,9.57
2023-05-09T08:20:05.861Z,9.59
2023-05-09T08:22:32.928Z,9.61
2023-05-09T08:24:59.790Z,9.52
2023-05-09T08:27:27.621Z,9.44
2023-05-09T08:29:54.315Z,9.37
2023-05-09T08:32:21.334Z,9.39
2023-05-09T08:34:48.251Z,9.47
2023-05-09T08:37:15.733Z,9.45
2023-05-09T08:39:43.317Z,9.49
2023-05-09T08:42:16.192Z,9.60
2023-05-09T08:44:43.180Z,9.66
2023-05-09T08:47:10.830Z,9.70
2023-05-09T08:49:41.639Z,9.69
2023-05-09T08:52:08.493Z,9.67
2023-05-09T08:54:36.090Z,9.64
2023-05-09T08:57:03.564Z,9.66
2023-05-09T08:59:31.804Z,9.68
2023-05-09T09:01:59.414Z,9.68
2023-05-09T09:04:26.551Z,9.63
2023-05-09T09:06:54.636Z,9.54
2023-05-09T09:09:24.815Z,9.48
2023-05-09T09:11:53.490Z,9.50
2023-05-09T09:14:26.114Z,9.50
2023-05-09T09:16:55.999Z,9.50
2023-05-09T09:19:30.284Z,9.61
2023-05-09T09:22:01.022Z,9.69
2023-05-09T09:24:27.767Z,9.79
2023-05-09T09:26:54.497Z,9.80
2023-05-09T09:29:21.412Z,9.79
2023-05-09T09:31:52.438Z,9.80
2023-05-09T09:34:24.321Z,9.83
2023-05-09T09:36:51.687Z,9.80
2023-05-09T09:39:18.433Z,9.79
2023-05-09T09:41:48.849Z,9.85
2023-05-09T09:44:21.180Z,9.94
2023-05-09T09:46:56.184Z,10.03
2023-05-09T09:49:25.551Z,10.10
2023-05-09T09:51:57.907Z,10.08
2023-05-09T09:54:28.282Z,10.08
2023-05-09T09:56:56.710Z,10.14
2023-05-09T09:59:25.952Z,10.16
2023-05-09T10:01:58.515Z,10.20
2023-05-09T10:04:30.942Z,10.27
2023-05-09T10:07:08.999Z,10.26
2023-05-09T10:09:38.286Z,10.26
2023-05-09T10:12:07.434Z,10.27
2023-05-09T10:14:36.875Z,10.18
2023-05-09T10:17:05.530Z,10.25
2023-05-09T10:19:35.953Z,10.20
2023-05-09T10:22:06.353Z,10.15
2023-05-09T10:24:57.691Z,10.19
2023-05-09T10:27:29.110Z,10.18
2023-05-09T10:30:13.203Z,10.05
2023-05-09T10:33:11.533Z,10.06
2023-05-09T10:35:45.088Z,10.05
2023-05-09T10:38:12.747Z,10.03
2023-05-09T10:40:44.075Z,9.98
2023-05-09T10:43:11.370Z,10.01
2023-05-09T10:45:38.908Z,9.98
2023-05-09T10:48:09.148Z,10.00
2023-05-09T10:50:37.776Z,10.01
2023-05-09T10:53:08.337Z,10.00
2023-05-09T10:55:56.752Z,10.09
2023-05-09T10:58:29.947Z,10.11
2023-05-09T11:00:59.023Z,10.19
2023-05-09T11:03:27.208Z,10.27
2023-05-09T11:05:58.479Z,10.42
2023-05-09T11:08:27.789Z,10.56
2023-05-09T11:10:57.102Z,10.55
2023-05-09T11:13:26.081Z,10.73
2023-05-09T11:16:02.061Z,10.77
2023-05-09T11:18:29.967Z,10.87
2023-05-09T11:20:57.181Z,10.85
2023-05-09T11:23:30.146Z,10.80
2023-05-09T11:26:06.789Z,10.90
2023-05-09T11:28:38.916Z,11.00
2023-05-09T11:31:13.717Z,11.08
2023-05-09T11:33:42.295Z,11.06
2023-05-09T11:36:29.506Z,11.09
2023-05-09T11:39:09.377Z,11.13
2023-05-09T11:41:48.672Z,11.14
2023-05-09T11:44:17.807Z,11.25
2023-05-09T11:46:46.065Z,11.29
2023-05-09T11:49:17.029Z,11.44
2023-05-09T11:51:44.158Z,11.52
2023-05-09T11:54:12.579Z,11.56
2023-05-09T11:56:41.720Z,11.46
2023-05-09T11:59:11.802Z,11.45
2023-05-09T12:01:38.970Z,11.40
2023-05-09T12:04:08.645Z,11.30
2023-05-09T12:06:38.670Z,11.24
2023-05-09T12:09:05.673Z,11.23
2023-05-09T12:11:32.646Z,11.14
2023-05-09T12:14:02.741Z,11.06
2023-05-09T12:16:29.525Z,10.97
2023-05-09T12:18:56.568Z,11.11
2023-05-09T12:21:23.807Z,11.08
2023-05-09T12:23:52.568Z,11.02
2023-05-09T12:26:22.784Z,11.05
2023-05-09T12:28:50.662Z,11.11
2023-05-09T12:31:18.200Z,11.05
2023-05-09T12:33:45.542Z,11.06
2023-05-09T12:36:13.815Z,11.05
2023-05-09T12:38:40.990Z,11.07
2023-05-09T12:41:15.511Z,11.10
2023-05-09T12:43:50.927Z,11.15
2023-05-09T12:46:24.707Z,11.17
2023-05-09T12:48:51.948Z,11.20
2023-05-09T12:51:21.023Z,11.29
2023-05-09T12:53:51.521Z,11.28
2023-05-09T12:56:24.650Z,11.28
2023-05-09T12:58:56.032Z,11.34
2023-05-09T13:01:28.277Z,11.38
2023-05-09T13:04:05.875Z,11.35
2023-05-09T13:06:32.977Z,11.27
2023-05-09T13:09:06.561Z,11.13
2023-05-09T13:11:33.581Z,11.10
2023-05-09T13:14:02.432Z,11.06
2023-05-09T13:16:29.394Z,11.00
2023-05-09T13:18:58.928Z,10.92
2023-05-09T13:21:25.739Z,10.89
2023-05-09T13:23:52.484Z,10.95
2023-05-09T13:26:19.575Z,11.00
2023-05-09T13:28:46.307Z,11.08
2023-05-09T13:31:13.004Z,11.05
2023-05-09T13:33:39.975Z,11.07
2023-05-09T13:36:07.300Z,11.09
2023-05-09T13:38:38.930Z,11.05
2023-05-09T13:41:06.198Z,11.07
2023-05-09T13:43:34.156Z,11.12
2023-05-09T13:46:01.722Z,11.16
2023-05-09T13:48:31.712Z,11.21
2023-05-09T13:51:07.979Z,11.18
2023-05-09T13:53:39.102Z,11.18
2023-05-09T13:56:09.406Z,11.16
2023-05-09T13:58:36.578Z,11.15
2023-05-09T14:01:04.208Z,11.13
2023-05-09T14:03:32.005Z,11.11
2023-05-09T14:05:58.993Z,11.12
2023-05-09T14:08:25.941Z,11.07
2023-05-09T14:10:52.662Z,10.99
2023-05-09T14:13:19.513Z,11.00
2023-05-09T14:15:46.380Z,10.99
2023-05-09T14:18:17.680Z,11.04
2023-05-09T14:20:46.430Z,11.11
2023-05-09T14:23:16.030Z,11.09
2023-05-09T14:25:42.750Z,11.11
2023-05-09T14:28:09.812Z,11.13
2023-05-09T14:30:37.056Z,11.13
2023-05-09T14:33:04.203Z,11.20
2023-05-09T14:35:34.151Z,11.14
2023-05-09T14:38:06.838Z,11.13
2023-05-09T14:40:33.715Z,11.05
2023-05-09T14:43:02.771Z,11.10
2023-05-09T14:45:30.536Z,11.09
2023-05-09T14:47:57.859Z,11.07
2023-05-09T14:50:25.002Z,11.12
2023-05-09T14:52:52.352Z,11.16
2023-05-09T14:55:19.870Z,11.14
2023-05-09T14:57:46.589Z,11.14
2023-05-09T15:00:21.199Z,11.17
2023-05-09T15:02:54.604Z,11.23
2023-05-09T15:05:21.567Z,11.17
2023-05-09T15:07:49.043Z,11.18
2023-05-09T15:10:16.345Z,11.19
2023-05-09T15:12:46.653Z,11.11
2023-05-09T15:15:16.428Z,11.11
2023-05-09T15:17:45.430Z,11.13
2023-05-09T15:20:19.002Z,11.17
2023-05-09T15:22:55.952Z,11.12
2023-05-09T15:25:26.829Z,11.10
2023-05-09T15:27:54.279Z,11.09
2023-05-09T15:30:21.201Z,11.14
2023-05-09T15:32:48.249Z,11.17
2023-05-09T15:35:15.964Z,11.05
2023-05-09T15:37:45.951Z,10.98
2023-05-09T15:40:13.517Z,10.85
2023-05-09T15:42:43.663Z,10.75
2023-05-09T15:45:10.646Z,10.66
2023-05-09T15:47:37.721Z,10.61
2023-05-09T15:50:05.036Z,10.56
2023-05-09T15:52:35.020Z,10.54
2023-05-09T15:55:05.417Z,10.50
2023-05-09T15:57:32.686Z,10.41
2023-05-09T15:59:59.470Z,10.36
2023-05-09T16:02:26.560Z,10.37
2023-05-09T16:04:53.458Z,10.37
2023-05-09T16:07:20.997Z,10.47
2023-05-09T16:09:47.903Z,10.49
2023-05-09T16:12:15.264Z,10.50
2023-05-09T16:14:42.609Z,10.55
2023-05-09T16:17:09.288Z,10.59
2023-05-09T16:19:39.445Z,10.62
2023-05-09T16:22:06.667Z,10.62
2023-05-09T16:38:56.679Z,10.53
2023-05-09T16:41:52.901Z,10.57
2023-05-09T16:47:58.473Z,10.56
2023-05-09T16:50:27.508Z,10.60
2023-05-09T16:52:58.123Z,10.63
2023-05-09T16:55:26.022Z,10.65
2023-05-09T16:57:58.722Z,10.62
2023-05-09T17:00:25.608Z,10.66
2023-05-09T17:02:53.617Z,10.65
2023-05-09T17:05:21.075Z,10.64
2023-05-09T17:07:49.298Z,10.65
2023-05-09T17:10:20.456Z,10.66
2023-05-09T17:12:56.475Z,10.74
2023-05-09T17:15:29.246Z,10.72
2023-05-09T17:24:45.535Z,10.65
2023-05-09T17:27:38.660Z,10.62
2023-05-09T17:30:25.897Z,10.58
2023-05-09T17:32:54.737Z,10.59
2023-05-09T17:35:22.788Z,10.60
2023-05-09T17:37:55.445Z,10.62
2023-05-09T17:40:22.421Z,10.50
2023-05-09T17:42:52.568Z,10.54
2023-05-09T17:58:36.308Z,10.49
2023-05-09T18:01:03.111Z,10.47
2023-05-09T18:03:35.211Z,10.54
2023-05-09T18:15:01.520Z,10.47
2023-05-09T18:18:04.668Z,10.51
2023-05-09T18:21:40.323Z,10.49
2023-05-09T18:31:50.881Z,10.40
2023-05-09T18:34:56.828Z,10.42
2023-05-09T18:37:25.445Z,10.35
2023-05-09T18:42:47.734Z,10.36
2023-05-09T18:48:13.565Z,10.33
2023-05-09T18:50:44.625Z,10.30
2023-05-09T18:53:23.355Z,10.29
2023-05-09T18:56:34.092Z,10.32
2023-05-09T18:59:13.443Z,10.31
2023-05-09T19:02:22.585Z,10.29
2023-05-09T19:05:11.148Z,10.26
2023-05-09T19:07:45.411Z,10.30
2023-05-09T19:13:18.513Z,10.36
2023-05-09T19:15:48.320Z,10.40
2023-05-09T19:18:30.466Z,10.42
2023-05-09T19:21:05.147Z,10.40
2023-05-09T19:23:36.214Z,10.43
2023-05-09T19:26:15.770Z,10.41
2023-05-09T19:29:49.950Z,10.35
2023-05-09T19:32:44.133Z,10.26
2023-05-09T19:35:45.766Z,10.26
2023-05-09T19:41:11.589Z,10.24
2023-05-09T19:43:42.000Z,10.22
2023-05-09T19:46:12.646Z,10.23
2023-05-09T19:48:39.706Z,10.28
2023-05-09T19:51:11.257Z,10.30
2023-05-09T19:53:42.233Z,10.29
2023-05-09T19:56:09.814Z,10.23
2023-05-09T19:58:41.179Z,10.25
2023-05-09T20:01:08.315Z,10.21
2023-05-09T20:06:26.877Z,10.14
2023-05-09T20:08:54.098Z,10.11
2023-05-09T20:11:22.116Z,10.15
2023-05-09T20:13:49.639Z,10.14
2023-05-09T20:16:17.104Z,10.05
2023-05-09T20:18:44.317Z,10.09
2023-05-09T20:21:11.837Z,10.12
2023-05-09T20:23:41.831Z,10.07
2023-05-09T20:26:12.054Z,10.08
2023-05-09T20:28:42.535Z,10.08
2023-05-09T20:31:09.735Z,10.05
2023-05-09T20:33:40.548Z,10.06
2023-05-09T20:36:10.006Z,10.07
2023-05-09T20:38:37.548Z,10.04
2023-05-09T20:41:08.846Z,10.05
2023-05-09T20:43:36.585Z,10.03
2023-05-09T20:46:04.299Z,10.08
2023-05-09T20:48:34.467Z,10.08
2023-05-09T20:51:28.525Z,10.09
2023-05-09T20:54:17.766Z,10.09
2023-05-09T20:57:00.712Z,10.13
2023-05-09T20:59:29.273Z,10.10
2023-05-09T21:05:42.401Z,10.01
2023-05-09T21:08:15.283Z,10.03
2023-05-09T21:10:42.586Z,10.01
2023-05-09T21:13:13.345Z,10.05
2023-05-09T21:15:52.155Z,10.07
2023-05-09T21:18:21.625Z,10.03
2023-05-09T21:20:49.553Z,10.01
2023-05-09T21:23:18.632Z,10.02
2023-05-09T21:25:48.822Z,10.00
2023-05-09T21:28:24.264Z,9.99
2023-05-09T21:30:54.259Z,9.98
2023-05-09T21:33:21.514Z,10.00
2023-05-09T21:35:48.553Z,10.04
2023-05-09T21:38:21.813Z,10.06
2023-05-09T21:40:59.300Z,10.10
2023-05-09T21:43:26.805Z,10.11
2023-05-09T21:46:06.651Z,10.09
2023-05-09T21:48:36.317Z,10.17
2023-05-09T21:51:04.487Z,10.15
2023-05-09T21:53:35.406Z,10.15
2023-05-09T21:56:02.725Z,10.09
2023-05-09T21:58:33.622Z,10.12
2023-05-09T22:01:06.466Z,10.13
2023-05-09T22:03:33.922Z,10.14
2023-05-09T22:06:01.284Z,10.16
2023-05-09T22:08:31.169Z,10.21
2023-05-09T22:10:58.219Z,10.19
2023-05-09T22:13:27.179Z,10.20
2023-05-09T22:15:54.607Z,10.21
2023-05-09T22:18:43.292Z,10.20
2023-05-09T22:21:10.458Z,10.18
2023-05-09T22:23:37.662Z,10.17
2023-05-09T22:26:17.223Z,10.20
2023-05-09T22:28:44.321Z,10.23
2023-05-09T22:31:11.365Z,10.20
2023-05-09T22:33:46.296Z,10.18
2023-05-09T22:36:14.963Z,10.18
2023-05-09T22:38:42.800Z,10.19
2023-05-09T22:41:10.378Z,10.22
2023-05-09T22:43:39.477Z,10.21
2023-05-09T22:46:07.683Z,10.22
2023-05-09T22:48:35.426Z,10.19
2023-05-09T22:51:02.649Z,10.13
2023-05-09T22:53:32.831Z,10.11
2023-05-09T22:56:00.455Z,10.15
2023-05-09T22:58:27.800Z,10.17
2023-05-09T23:00:55.021Z,10.17
2023-05-09T23:03:22.397Z,10.13
2023-05-09T23:05:52.834Z,10.11
2023-05-09T23:08:19.734Z,10.01
2023-05-09T23:10:46.573Z,9.98
2023-05-09T23:13:13.467Z,10.02
2023-05-09T23:15:40.437Z,10.00
2023-05-09T23:18:10.534Z,9.98
2023-05-09T23:20:37.784Z,9.89
2023-05-09T23:23:05.004Z,9.88
2023-05-09T23:25:32.223Z,9.86
2023-05-09T23:27:59.260Z,9.86
2023-05-09T23:30:26.178Z,9.87
2023-05-09T23:33:02.239Z,9.85
2023-05-09T23:35:29.219Z,9.84
2023-05-09T23:37:56.715Z,9.89
2023-05-09T23:40:25.650Z,9.97
2023-05-09T23:42:52.506Z,9.93
2023-05-09T23:45:23.212Z,9.85
2023-05-09T23:47:50.197Z,9.87
2023-05-09T23:50:17.687Z,9.77
2023-05-09T23:52:44.724Z,9.71
2023-05-09T23:55:11.894Z,9.67
2023-05-09T23:57:38.742Z,9.70
